Time;durP1;ratioP1;P1;durP2;ratioP2;P2;SDS_P1;SDS_P2;PMS_P1;PMS_P2;Temp;Humidity;BMP_temperature;BMP_pressure;BME280_temperature;BME280_humidity;BME280_pressure;Samples;Min_cycle;Max_cycle;Signal;HPM_P1;HPM_P2
2021/08/04 00:00:53;;;;;;;13.73;8.20;;;;;;;;;;4997268;28;20470;-85
2021/08/04 00:03:27;;;;;;;11.93;7.15;;;;;;;;;;5015578;28;20018;-85
2021/08/04 00:05:53;;;;;;;13.30;8.02;;;;;;;;;;5014054;28;20029;-85
2021/08/04 00:08:19;;;;;;;13.75;8.02;;;;;;;;;;5013983;28;20026;-84
2021/08/04 00:10:44;;;;;;;15.35;7.25;;;;;;;;;;5013928;28;20431;-85
2021/08/04 00:13:11;;;;;;;12.93;7.30;;;;;;;;;;5013922;28;20029;-84
2021/08/04 00:15:37;;;;;;;14.95;8.20;;;;;;;;;;5013983;28;20049;-84
2021/08/04 00:18:03;;;;;;;13.40;7.60;;;;;;;;;;5013916;28;20022;-84
2021/08/04 00:20:29;;;;;;;15.82;7.78;;;;;;;;;;5013796;28;20042;-84
2021/08/04 00:22:54;;;;;;;14.38;6.63;;;;;;;;;;5013862;28;20036;-84
2021/08/04 00:25:20;;;;;;;14.73;7.35;;;;;;;;;;5013490;28;20033;-85
2021/08/04 00:27:46;;;;;;;14.35;8.68;;;;;;;;;;5013990;28;20026;-85
2021/08/04 00:30:12;;;;;;;12.57;7.68;;;;;;;;;;4996170;28;20091;-84
2021/08/04 00:32:38;;;;;;;13.45;7.55;;;;;;;;;;5013678;28;20505;-84
2021/08/04 00:35:04;;;;;;;11.60;7.15;;;;;;;;;;5013688;28;20030;-85
2021/08/04 00:37:30;;;;;;;16.20;8.02;;;;;;;;;;5013926;28;20018;-85
2021/08/04 00:39:56;;;;;;;14.82;7.15;;;;;;;;;;5013554;28;20382;-85
2021/08/04 00:42:21;;;;;;;11.02;6.97;;;;;;;;;;5013709;28;20033;-85
2021/08/04 00:44:47;;;;;;;14.88;8.40;;;;;;;;;;5013661;28;20029;-85
2021/08/04 00:47:14;;;;;;;14.65;8.07;;;;;;;;;;5013618;28;20022;-85
2021/08/04 00:49:39;;;;;;;19.20;7.63;;;;;;;;;;5013375;28;20026;-84
2021/08/04 00:52:06;;;;;;;19.73;8.40;;;;;;;;;;5013546;28;20401;-84
2021/08/04 00:54:32;;;;;;;18.63;8.65;;;;;;;;;;5013540;28;20028;-85
2021/08/04 00:56:57;;;;;;;24.75;10.20;;;;;;;;;;5013668;28;20026;-85
2021/08/04 00:59:23;;;;;;;19.17;8.00;;;;;;;;;;5013803;28;20478;-85
2021/08/04 01:02:02;;;;;;;20.45;9.15;;;;;;;;;;5013480;28;20089;-84
2021/08/04 01:04:33;;;;;;;22.55;10.07;;;;;;;;;;5013618;28;20040;-84
2021/08/04 01:07:13;;;;;;;23.33;10.50;;;;;;;;;;5013357;28;20025;-84
2021/08/04 01:10:07;;;;;;;25.20;10.65;;;;;;;;;;4995953;28;20034;-84
2021/08/04 01:13:01;;;;;;;32.22;11.95;;;;;;;;;;5013751;28;20551;-84
2021/08/04 01:15:31;;;;;;;31.17;11.98;;;;;;;;;;4995862;28;20054;-85
2021/08/04 01:17:58;;;;;;;22.13;10.88;;;;;;;;;;5013387;28;20104;-84
2021/08/04 01:20:26;;;;;;;26.35;11.45;;;;;;;;;;5013161;28;20057;-84
2021/08/04 01:23:12;;;;;;;27.13;11.48;;;;;;;;;;5013323;28;20022;-84
2021/08/04 01:25:46;;;;;;;34.80;13.75;;;;;;;;;;5013341;28;20018;-84
2021/08/04 01:28:27;;;;;;;27.17;12.23;;;;;;;;;;5013343;28;20045;-84
2021/08/04 01:30:57;;;;;;;30.30;11.65;;;;;;;;;;5013107;28;20030;-84
2021/08/04 01:33:23;;;;;;;23.38;10.15;;;;;;;;;;5013202;28;20026;-85
2021/08/04 01:35:51;;;;;;;24.52;10.63;;;;;;;;;;5013968;28;20022;-85
2021/08/04 01:38:18;;;;;;;20.85;9.50;;;;;;;;;;5016875;28;20073;-84
2021/08/04 01:40:48;;;;;;;23.67;10.00;;;;;;;;;;5016599;28;20033;-84
2021/08/04 01:43:14;;;;;;;29.38;10.73;;;;;;;;;;5016478;28;20029;-84
2021/08/04 01:45:41;;;;;;;36.15;12.85;;;;;;;;;;5016546;28;20033;-84
2021/08/04 01:48:07;;;;;;;40.15;14.38;;;;;;;;;;5016501;28;20033;-84
2021/08/04 01:50:35;;;;;;;37.10;15.10;;;;;;;;;;5016411;28;20474;-84
2021/08/04 01:53:01;;;;;;;32.33;14.20;;;;;;;;;;5016461;28;20088;-85
2021/08/04 01:55:27;;;;;;;36.42;14.32;;;;;;;;;;5016659;28;20058;-85
2021/08/04 01:57:53;;;;;;;34.88;13.60;;;;;;;;;;5016349;28;20438;-84
2021/08/04 02:00:18;;;;;;;33.28;12.85;;;;;;;;;;5016240;28;20105;-84
2021/08/04 02:02:44;;;;;;;34.13;13.75;;;;;;;;;;5016223;28;20129;-84
2021/08/04 02:05:10;;;;;;;32.72;12.73;;;;;;;;;;5016197;28;20382;-84
2021/08/04 02:08:00;;;;;;;36.40;12.90;;;;;;;;;;5014887;28;20037;-84
2021/08/04 02:10:47;;;;;;;31.05;12.23;;;;;;;;;;5016250;28;20384;-84
2021/08/04 02:13:43;;;;;;;33.03;12.80;;;;;;;;;;5017773;28;20037;-84
2021/08/04 02:16:20;;;;;;;24.42;11.88;;;;;;;;;;5015905;28;20033;-85
2021/08/04 02:18:54;;;;;;;31.50;12.73;;;;;;;;;;5015796;28;20045;-84
2021/08/04 02:21:23;;;;;;;29.30;10.82;;;;;;;;;;5014520;28;20026;-84
2021/08/04 02:23:51;;;;;;;28.20;13.10;;;;;;;;;;5015652;28;20500;-84
2021/08/04 02:26:20;;;;;;;29.27;12.98;;;;;;;;;;5015702;28;20017;-85
2021/08/04 02:28:50;;;;;;;27.73;12.27;;;;;;;;;;5015733;28;20022;-84
2021/08/04 02:31:18;;;;;;;30.08;13.38;;;;;;;;;;5015670;28;20022;-85
2021/08/04 02:33:44;;;;;;;38.55;15.55;;;;;;;;;;4998224;28;20022;-85
2021/08/04 02:36:12;;;;;;;36.17;15.20;;;;;;;;;;5015636;28;20446;-85
2021/08/04 02:38:37;;;;;;;31.95;14.88;;;;;;;;;;5015440;28;20058;-85
2021/08/04 02:41:04;;;;;;;32.47;13.48;;;;;;;;;;5015386;28;20172;-84
2021/08/04 02:43:31;;;;;;;30.85;13.85;;;;;;;;;;5015353;28;20546;-85
2021/08/04 02:45:58;;;;;;;28.08;13.82;;;;;;;;;;5015598;28;20033;-84
2021/08/04 02:48:25;;;;;;;34.25;12.77;;;;;;;;;;5015040;28;20478;-84
2021/08/04 02:50:59;;;;;;;29.92;12.32;;;;;;;;;;5015383;28;20060;-84
2021/08/04 02:53:25;;;;;;;28.58;12.07;;;;;;;;;;5015327;28;20474;-84
2021/08/04 02:55:52;;;;;;;33.28;13.38;;;;;;;;;;5015174;28;20034;-85
2021/08/04 02:58:18;;;;;;;32.50;13.07;;;;;;;;;;5015351;28;20107;-84
2021/08/04 03:00:44;;;;;;;32.13;13.02;;;;;;;;;;5015039;28;20436;-84
2021/08/04 03:03:10;;;;;;;29.13;11.65;;;;;;;;;;5014947;28;20026;-84
2021/08/04 03:05:36;;;;;;;33.05;12.85;;;;;;;;;;5015022;28;20071;-85
2021/08/04 03:08:02;;;;;;;27.38;12.93;;;;;;;;;;5015011;28;20109;-84
2021/08/04 03:10:28;;;;;;;26.15;12.48;;;;;;;;;;5014956;28;20461;-84
2021/08/04 03:12:53;;;;;;;25.83;11.82;;;;;;;;;;5014795;28;20492;-85
2021/08/04 03:15:19;;;;;;;33.83;13.73;;;;;;;;;;5015036;28;20022;-85
2021/08/04 03:17:45;;;;;;;29.85;13.90;;;;;;;;;;5014832;28;20029;-84
2021/08/04 03:20:11;;;;;;;41.67;14.75;;;;;;;;;;5014483;28;20088;-84
2021/08/04 03:22:43;;;;;;;33.75;12.68;;;;;;;;;;5014747;28;20026;-85
2021/08/04 03:25:10;;;;;;;34.88;14.13;;;;;;;;;;5014854;28;20045;-84
2021/08/04 03:27:35;;;;;;;31.08;14.43;;;;;;;;;;5015102;28;20379;-84
2021/08/04 03:30:01;;;;;;;24.48;13.13;;;;;;;;;;5015921;28;20033;-85
2021/08/04 03:32:26;;;;;;;26.42;13.80;;;;;;;;;;5013423;28;20050;-84
2021/08/04 03:34:52;;;;;;;25.70;14.40;;;;;;;;;;5013913;28;20045;-84
2021/08/04 03:37:18;;;;;;;25.45;13.98;;;;;;;;;;5009277;28;20029;-84
2021/08/04 03:39:43;;;;;;;25.60;13.73;;;;;;;;;;4995027;28;20382;-84
2021/08/04 03:42:09;;;;;;;22.88;13.25;;;;;;;;;;4977905;28;20031;-84
2021/08/04 03:44:35;;;;;;;22.92;13.30;;;;;;;;;;4994821;28;20057;-84
2021/08/04 03:47:00;;;;;;;24.45;12.82;;;;;;;;;;4994855;28;20511;-84
2021/08/04 03:49:26;;;;;;;20.30;12.82;;;;;;;;;;4994655;28;20030;-84
2021/08/04 03:51:51;;;;;;;25.17;12.50;;;;;;;;;;4977646;28;20033;-85
2021/08/04 03:54:17;;;;;;;26.70;12.98;;;;;;;;;;4977460;28;20026;-84
2021/08/04 03:56:43;;;;;;;23.15;12.52;;;;;;;;;;4994563;28;20034;-84
2021/08/04 03:59:08;;;;;;;23.20;14.35;;;;;;;;;;4994266;28;20026;-84
2021/08/04 04:01:34;;;;;;;24.13;13.52;;;;;;;;;;4994841;28;20386;-85
2021/08/04 04:03:59;;;;;;;24.35;12.75;;;;;;;;;;4994376;28;20034;-86
2021/08/04 04:06:25;;;;;;;24.38;12.80;;;;;;;;;;4994748;28;20049;-84
2021/08/04 04:08:51;;;;;;;23.40;12.55;;;;;;;;;;4994509;28;20045;-85
2021/08/04 04:11:16;;;;;;;21.75;11.50;;;;;;;;;;4977578;28;20026;-85
2021/08/04 04:13:42;;;;;;;21.27;11.82;;;;;;;;;;4994267;28;20023;-85
2021/08/04 04:16:08;;;;;;;21.73;13.50;;;;;;;;;;4994683;28;20060;-84
2021/08/04 04:18:33;;;;;;;23.08;12.88;;;;;;;;;;4973286;28;20100;-85
2021/08/04 04:20:59;;;;;;;19.50;11.52;;;;;;;;;;4975288;28;20037;-85
2021/08/04 04:23:25;;;;;;;21.00;11.65;;;;;;;;;;4974891;28;20037;-84
2021/08/04 04:25:50;;;;;;;22.88;13.32;;;;;;;;;;4974970;28;20019;-84
2021/08/04 04:28:16;;;;;;;20.05;12.10;;;;;;;;;;4974809;28;20019;-84
2021/08/04 04:30:42;;;;;;;18.63;11.82;;;;;;;;;;4974764;28;20101;-84
2021/08/04 04:33:07;;;;;;;22.85;13.15;;;;;;;;;;4974884;28;20019;-84
2021/08/04 04:35:33;;;;;;;22.08;12.02;;;;;;;;;;4974720;28;20031;-86
2021/08/04 04:37:58;;;;;;;21.15;11.98;;;;;;;;;;4974967;28;20023;-84
2021/08/04 04:40:24;;;;;;;21.13;12.43;;;;;;;;;;4974567;28;20390;-84
2021/08/04 04:42:50;;;;;;;31.77;14.10;;;;;;;;;;4973689;28;20476;-84
2021/08/04 04:45:16;;;;;;;21.13;12.05;;;;;;;;;;4975132;28;20023;-84
2021/08/04 04:47:42;;;;;;;20.42;13.35;;;;;;;;;;4974695;28;20443;-84
2021/08/04 04:50:08;;;;;;;21.15;12.88;;;;;;;;;;4974786;28;20046;-84
2021/08/04 04:52:42;;;;;;;20.45;12.48;;;;;;;;;;4989551;28;20034;-85
2021/08/04 04:55:09;;;;;;;20.95;11.60;;;;;;;;;;4973392;28;20037;-83
2021/08/04 04:57:35;;;;;;;20.05;11.93;;;;;;;;;;4974721;28;20014;-85
2021/08/04 05:00:02;;;;;;;19.90;11.93;;;;;;;;;;4974446;28;20395;-85
2021/08/04 05:02:27;;;;;;;18.25;11.68;;;;;;;;;;4974444;28;20018;-85
2021/08/04 05:04:53;;;;;;;19.00;11.48;;;;;;;;;;4974439;28;20471;-85
2021/08/04 05:07:18;;;;;;;23.35;12.52;;;;;;;;;;4974601;28;20031;-85
2021/08/04 05:09:44;;;;;;;21.42;12.48;;;;;;;;;;4974248;28;20463;-86
2021/08/04 05:12:10;;;;;;;20.60;12.95;;;;;;;;;;4978084;28;20026;-85
2021/08/04 05:14:40;;;;;;;23.58;12.48;;;;;;;;;;4978067;28;20055;-89
2021/08/04 05:17:06;;;;;;;20.33;15.45;;;;;;;;;;4978287;28;20109;-85
2021/08/04 05:19:31;;;;;;;19.95;13.23;;;;;;;;;;4990027;28;20074;-82
2021/08/04 05:21:57;;;;;;;17.92;11.23;;;;;;;;;;4997564;28;20034;-80
2021/08/04 05:24:22;;;;;;;15.77;10.63;;;;;;;;;;4980429;28;20050;-85
2021/08/04 05:26:48;;;;;;;16.70;11.55;;;;;;;;;;4997295;28;20026;-85
2021/08/04 05:29:14;;;;;;;14.27;10.63;;;;;;;;;;4997482;28;20053;-85
2021/08/04 05:31:39;;;;;;;18.38;13.55;;;;;;;;;;4997876;28;20034;-84
2021/08/04 05:34:05;;;;;;;14.77;10.68;;;;;;;;;;4998244;28;20046;-85
2021/08/04 05:36:30;;;;;;;16.42;12.48;;;;;;;;;;4997232;28;20391;-85
2021/08/04 05:38:57;;;;;;;14.48;11.50;;;;;;;;;;4998404;28;20489;-85
2021/08/04 05:41:23;;;;;;;14.90;10.20;;;;;;;;;;4997165;28;20026;-85
2021/08/04 05:43:49;;;;;;;14.75;9.60;;;;;;;;;;4997630;28;20077;-85
2021/08/04 05:56:54;;;;;;;13.52;9.10;;;;;;;;;;5131868;27;20384;-84
2021/08/04 05:59:20;;;;;;;16.98;9.60;;;;;;;;;;5131840;28;20389;-85
2021/08/04 06:01:46;;;;;;;13.20;9.02;;;;;;;;;;5131772;28;20030;-84
2021/08/04 06:04:11;;;;;;;15.65;9.55;;;;;;;;;;5112857;28;20020;-83
2021/08/04 06:06:37;;;;;;;14.93;9.45;;;;;;;;;;5122032;28;20024;-84
2021/08/04 06:09:03;;;;;;;16.17;10.05;;;;;;;;;;5113807;28;20062;-85
2021/08/04 06:11:28;;;;;;;15.20;8.70;;;;;;;;;;5114858;28;20119;-85
2021/08/04 06:13:54;;;;;;;12.63;10.02;;;;;;;;;;5121743;28;20463;-85
2021/08/04 06:16:20;;;;;;;16.40;9.63;;;;;;;;;;5119883;28;20043;-84
2021/08/04 06:18:45;;;;;;;18.30;9.60;;;;;;;;;;5115489;28;20459;-85
2021/08/04 06:21:11;;;;;;;20.92;10.98;;;;;;;;;;5110889;28;20024;-85
2021/08/04 06:23:37;;;;;;;14.65;10.30;;;;;;;;;;5110831;28;20023;-85
2021/08/04 06:26:02;;;;;;;20.00;13.18;;;;;;;;;;5092790;28;20027;-85
2021/08/04 06:28:28;;;;;;;15.15;10.35;;;;;;;;;;5110724;28;20031;-86
2021/08/04 06:30:54;;;;;;;16.35;9.60;;;;;;;;;;5110819;28;20024;-85
2021/08/04 06:33:20;;;;;;;16.60;8.50;;;;;;;;;;5116358;28;20051;-86
2021/08/04 06:35:46;;;;;;;13.38;8.30;;;;;;;;;;5131405;28;20084;-85
2021/08/04 06:38:12;;;;;;;14.10;9.10;;;;;;;;;;5127808;28;20069;-84
2021/08/04 06:40:38;;;;;;;16.55;9.15;;;;;;;;;;5130847;28;20405;-85
2021/08/04 06:43:04;;;;;;;11.88;8.40;;;;;;;;;;5131033;28;20023;-86
2021/08/04 06:45:29;;;;;;;14.00;8.73;;;;;;;;;;5131650;28;20088;-83
2021/08/04 06:47:55;;;;;;;12.10;7.65;;;;;;;;;;5113248;28;20019;-84
2021/08/04 06:50:21;;;;;;;12.45;7.80;;;;;;;;;;5129197;28;20433;-85
2021/08/04 06:52:46;;;;;;;15.00;9.57;;;;;;;;;;5129116;28;20027;-84
2021/08/04 06:55:12;;;;;;;18.15;10.25;;;;;;;;;;5129053;28;20122;-85
2021/08/04 06:57:37;;;;;;;16.25;10.60;;;;;;;;;;5116770;28;20023;-84
2021/08/04 07:00:04;;;;;;;16.58;10.25;;;;;;;;;;5115384;28;20439;-85
2021/08/04 07:02:29;;;;;;;16.67;7.60;;;;;;;;;;5115425;28;20456;-84
2021/08/04 07:04:55;;;;;;;15.80;8.25;;;;;;;;;;5117150;28;20031;-85
2021/08/04 07:07:20;;;;;;;13.77;7.72;;;;;;;;;;5098530;28;20440;-85
2021/08/04 07:09:46;;;;;;;12.95;7.45;;;;;;;;;;5116805;28;20028;-84
2021/08/04 07:12:12;;;;;;;15.25;8.77;;;;;;;;;;5116835;28;20111;-84
2021/08/04 07:14:38;;;;;;;14.50;7.50;;;;;;;;;;5098468;28;20066;-85
2021/08/04 07:17:05;;;;;;;16.20;7.13;;;;;;;;;;5116832;28;20019;-85
2021/08/04 07:19:31;;;;;;;13.93;6.88;;;;;;;;;;5116701;28;20031;-85
2021/08/04 07:21:56;;;;;;;13.77;7.93;;;;;;;;;;5116475;28;20020;-84
2021/08/04 07:24:22;;;;;;;11.10;6.75;;;;;;;;;;5098246;28;20035;-84
2021/08/04 07:26:48;;;;;;;11.70;7.78;;;;;;;;;;5098254;28;20020;-84
2021/08/04 07:29:13;;;;;;;15.20;7.40;;;;;;;;;;5116523;28;20538;-84
2021/08/04 07:31:40;;;;;;;13.40;7.22;;;;;;;;;;5116602;28;20077;-84
2021/08/04 07:34:06;;;;;;;12.52;7.22;;;;;;;;;;5098031;28;20032;-84
2021/08/04 07:36:32;;;;;;;11.60;6.80;;;;;;;;;;5116330;28;20027;-85
2021/08/04 07:38:58;;;;;;;11.95;7.40;;;;;;;;;;5116245;28;20028;-84
2021/08/04 07:41:23;;;;;;;12.15;6.60;;;;;;;;;;5116572;28;20107;-84
2021/08/04 07:43:49;;;;;;;12.32;6.72;;;;;;;;;;5116575;28;20050;-85
2021/08/04 07:46:17;;;;;;;14.80;7.10;;;;;;;;;;5116337;28;20470;-84
2021/08/04 07:48:46;;;;;;;17.58;8.23;;;;;;;;;;5116161;28;20028;-84
2021/08/04 07:51:12;;;;;;;;;;;;;;;;;;5116792;28;20023;-84
2021/08/04 07:53:38;;;;;;;12.32;6.53;;;;;;;;;;5123027;28;20354;-84
2021/08/04 07:56:04;;;;;;;12.05;6.97;;;;;;;;;;5121801;28;20047;-84
2021/08/04 07:58:30;;;;;;;12.75;7.78;;;;;;;;;;5116740;28;20459;-85
2021/08/04 08:00:55;;;;;;;12.65;6.68;;;;;;;;;;5116804;28;20382;-84
2021/08/04 08:03:21;;;;;;;13.45;6.18;;;;;;;;;;5116497;28;20466;-84
2021/08/04 08:05:47;;;;;;;11.52;6.35;;;;;;;;;;5116040;28;20110;-85
2021/08/04 08:08:15;;;;;;;17.83;6.50;;;;;;;;;;5114827;28;20020;-84
2021/08/04 08:10:41;;;;;;;12.20;6.13;;;;;;;;;;5116028;28;20019;-84
2021/08/04 08:13:08;;;;;;;11.32;6.40;;;;;;;;;;5115678;28;20024;-85
2021/08/04 08:15:34;;;;;;;12.48;5.47;;;;;;;;;;5115687;28;20022;-84
2021/08/04 08:18:08;;;;;;;10.82;5.05;;;;;;;;;;5115666;28;20103;-84
2021/08/04 08:20:35;;;;;;;9.20;5.22;;;;;;;;;;5115467;28;20027;-84
2021/08/04 08:23:01;;;;;;;14.82;5.85;;;;;;;;;;5115820;28;20019;-85
2021/08/04 08:25:26;;;;;;;12.85;8.43;;;;;;;;;;5116102;28;20053;-84
2021/08/04 08:27:52;;;;;;;10.85;6.18;;;;;;;;;;5115708;28;20054;-84
2021/08/04 08:30:18;;;;;;;9.75;4.63;;;;;;;;;;5115722;28;20046;-84
2021/08/04 08:32:48;;;;;;;11.30;4.53;;;;;;;;;;5115604;28;20038;-85
2021/08/04 08:35:15;;;;;;;9.82;5.03;;;;;;;;;;5115031;28;20028;-84
2021/08/04 08:37:41;;;;;;;9.40;4.95;;;;;;;;;;5115373;28;20073;-84
2021/08/04 08:40:09;;;;;;;8.63;5.80;;;;;;;;;;5097369;28;20038;-85
2021/08/04 08:42:34;;;;;;;11.88;4.88;;;;;;;;;;5114970;28;20028;-84
2021/08/04 08:45:00;;;;;;;13.13;5.63;;;;;;;;;;5115109;28;20054;-84
2021/08/04 08:47:26;;;;;;;10.75;4.40;;;;;;;;;;5115166;28;20035;-85
2021/08/04 08:49:52;;;;;;;9.20;4.80;;;;;;;;;;5115551;28;20115;-85
2021/08/04 08:52:18;;;;;;;11.25;4.25;;;;;;;;;;5115780;28;20084;-83
2021/08/04 08:54:44;;;;;;;10.20;4.60;;;;;;;;;;5114674;28;20031;-83
2021/08/04 08:57:10;;;;;;;14.15;6.15;;;;;;;;;;5096801;28;20069;-85
2021/08/04 08:59:36;;;;;;;14.50;6.40;;;;;;;;;;5115285;28;20031;-86
2021/08/04 09:02:04;;;;;;;10.15;4.90;;;;;;;;;;5114963;28;20062;-85
2021/08/04 09:04:29;;;;;;;10.77;4.63;;;;;;;;;;5114972;28;20023;-86
2021/08/04 09:07:00;;;;;;;8.90;4.20;;;;;;;;;;5114870;28;20024;-85
2021/08/04 09:09:32;;;;;;;11.70;6.25;;;;;;;;;;5115183;28;20026;-84
2021/08/04 09:12:09;;;;;;;8.52;4.78;;;;;;;;;;5114782;28;20062;-84
2021/08/04 09:14:37;;;;;;;11.52;4.85;;;;;;;;;;5114688;28;20061;-85
2021/08/04 09:17:09;;;;;;;10.07;4.72;;;;;;;;;;5114428;28;20487;-84
2021/08/04 09:19:41;;;;;;;9.80;5.00;;;;;;;;;;5095944;28;20496;-84
2021/08/04 09:22:11;;;;;;;8.13;3.55;;;;;;;;;;5114715;28;20027;-84
2021/08/04 09:25:09;;;;;;;11.80;4.40;;;;;;;;;;5114487;28;20023;-84
2021/08/04 09:27:53;;;;;;;8.15;4.97;;;;;;;;;;5114512;28;20024;-84
2021/08/04 09:30:32;;;;;;;11.07;4.55;;;;;;;;;;5114804;28;20015;-84
2021/08/04 09:33:17;;;;;;;8.57;3.95;;;;;;;;;;5114744;28;20047;-83
2021/08/04 09:35:48;;;;;;;9.95;4.63;;;;;;;;;;5115754;28;20020;-85
2021/08/04 09:38:15;;;;;;;10.95;3.65;;;;;;;;;;5117897;28;20024;-83
2021/08/04 09:40:41;;;;;;;9.55;4.32;;;;;;;;;;5097143;28;20047;-84
2021/08/04 09:43:06;;;;;;;6.78;3.60;;;;;;;;;;5096578;28;20079;-84
2021/08/04 09:45:43;;;;;;;11.30;4.40;;;;;;;;;;5114666;28;20039;-84
2021/08/04 09:48:11;;;;;;;10.88;3.88;;;;;;;;;;5114504;28;20056;-84
2021/08/04 09:50:46;;;;;;;6.25;2.67;;;;;;;;;;5114323;28;20383;-84
2021/08/04 09:53:18;;;;;;;7.65;3.25;;;;;;;;;;5096052;28;20026;-84
2021/08/04 09:56:15;;;;;;;7.78;4.00;;;;;;;;;;5114167;28;20530;-85
2021/08/04 09:58:50;;;;;;;8.10;3.03;;;;;;;;;;5114225;28;20085;-85
2021/08/04 10:01:37;;;;;;;6.82;2.90;;;;;;;;;;5114543;28;20031;-84
2021/08/04 10:04:07;;;;;;;9.45;3.22;;;;;;;;;;5115234;28;20022;-85
2021/08/04 10:07:02;;;;;;;6.72;2.67;;;;;;;;;;5113893;28;20039;-84
2021/08/04 10:09:28;;;;;;;12.18;3.95;;;;;;;;;;5113905;28;20102;-84
2021/08/04 10:11:54;;;;;;;7.68;2.95;;;;;;;;;;5113859;28;20066;-83
2021/08/04 10:14:21;;;;;;;7.88;2.97;;;;;;;;;;5113858;28;20058;-83
2021/08/04 10:16:49;;;;;;;6.65;2.50;;;;;;;;;;5113876;28;20043;-83
2021/08/04 10:19:16;;;;;;;5.22;2.22;;;;;;;;;;5113692;28;20031;-84
2021/08/04 10:21:44;;;;;;;6.90;2.28;;;;;;;;;;5113872;28;20136;-85
2021/08/04 10:24:12;;;;;;;8.38;3.78;;;;;;;;;;5113655;28;20023;-83
2021/08/04 10:26:38;;;;;;;8.50;2.97;;;;;;;;;;5113846;28;20024;-85
2021/08/04 10:29:05;;;;;;;5.70;2.47;;;;;;;;;;5113491;28;20479;-84
2021/08/04 10:31:32;;;;;;;8.45;3.08;;;;;;;;;;5114616;28;20027;-84
2021/08/04 10:33:58;;;;;;;10.13;3.28;;;;;;;;;;5117517;28;20016;-85
2021/08/04 10:36:33;;;;;;;7.65;5.63;;;;;;;;;;5117576;28;20414;-84
2021/08/04 10:39:04;;;;;;;7.85;2.80;;;;;;;;;;5117633;28;20016;-86
2021/08/04 10:41:30;;;;;;;11.23;3.10;;;;;;;;;;5117067;28;20027;-85
2021/08/04 10:43:59;;;;;;;7.05;3.60;;;;;;;;;;5117376;28;20073;-86
2021/08/04 10:46:27;;;;;;;7.32;2.45;;;;;;;;;;5117509;28;20027;-85
2021/08/04 10:49:06;;;;;;;8.30;2.55;;;;;;;;;;5117399;28;20027;-85
2021/08/04 10:51:35;;;;;;;7.03;2.78;;;;;;;;;;5117363;28;20498;-84
2021/08/04 10:54:00;;;;;;;5.82;2.20;;;;;;;;;;5117189;28;20051;-85
2021/08/04 10:56:32;;;;;;;6.18;2.75;;;;;;;;;;5117182;28;20433;-85
2021/08/04 10:59:12;;;;;;;8.85;2.60;;;;;;;;;;5117286;28;20020;-85
2021/08/04 11:01:39;;;;;;;6.20;3.28;;;;;;;;;;5117023;28;20110;-85
2021/08/04 11:04:10;;;;;;;5.30;2.17;;;;;;;;;;5116970;28;20024;-84
2021/08/04 11:07:07;;;;;;;9.10;2.22;;;;;;;;;;5116758;28;20024;-84
2021/08/04 11:09:37;;;;;;;7.57;2.40;;;;;;;;;;5116818;28;20027;-84
2021/08/04 11:12:11;;;;;;;8.85;2.40;;;;;;;;;;5098496;28;20031;-84
2021/08/04 11:14:46;;;;;;;5.70;1.92;;;;;;;;;;5117047;28;20028;-84
2021/08/04 11:17:17;;;;;;;8.45;2.78;;;;;;;;;;5099574;28;20088;-84
2021/08/04 11:20:07;;;;;;;8.10;2.92;;;;;;;;;;5116972;28;20032;-84
2021/08/04 11:22:39;;;;;;;7.90;2.28;;;;;;;;;;5116880;28;20031;-85
2021/08/04 11:25:12;;;;;;;6.97;2.45;;;;;;;;;;5117183;28;20027;-84
2021/08/04 11:27:43;;;;;;;6.00;3.25;;;;;;;;;;5098378;28;20023;-85
2021/08/04 11:30:11;;;;;;;9.10;3.60;;;;;;;;;;5116540;28;20091;-85
2021/08/04 11:32:38;;;;;;;6.55;3.38;;;;;;;;;;5098175;28;20023;-84
2021/08/04 11:35:21;;;;;;;11.25;3.05;;;;;;;;;;5116512;28;20023;-84
2021/08/04 11:37:47;;;;;;;10.40;3.25;;;;;;;;;;5116569;28;20467;-84
2021/08/04 11:40:13;;;;;;;6.40;2.85;;;;;;;;;;5116330;28;20019;-86
2021/08/04 11:42:41;;;;;;;6.82;2.92;;;;;;;;;;5116421;28;20109;-84
2021/08/04 11:45:09;;;;;;;7.25;3.30;;;;;;;;;;5098091;28;20027;-84
2021/08/04 11:47:36;;;;;;;6.38;3.42;;;;;;;;;;5116394;28;20030;-85
2021/08/04 11:50:06;;;;;;;8.95;3.55;;;;;;;;;;5116402;28;20019;-84
2021/08/04 11:52:33;;;;;;;7.80;2.65;;;;;;;;;;5097889;28;20378;-84
2021/08/04 11:55:10;;;;;;;6.95;4.43;;;;;;;;;;5116716;28;20417;-82
2021/08/04 11:57:55;;;;;;;7.25;3.38;;;;;;;;;;5116588;28;20073;-83
2021/08/04 12:00:24;;;;;;;9.93;3.78;;;;;;;;;;5098135;28;20062;-85
2021/08/04 12:02:50;;;;;;;9.13;2.70;;;;;;;;;;5116044;28;20034;-79
2021/08/04 12:05:17;;;;;;;9.35;2.95;;;;;;;;;;5115670;28;20069;-79
2021/08/04 12:07:44;;;;;;;6.07;3.53;;;;;;;;;;5115784;28;20405;-79
2021/08/04 12:10:18;;;;;;;8.43;3.75;;;;;;;;;;5115580;28;20019;-78
2021/08/04 12:12:52;;;;;;;7.63;3.55;;;;;;;;;;5115593;28;20047;-81
2021/08/04 12:15:20;;;;;;;6.07;3.40;;;;;;;;;;5115797;28;20040;-81
2021/08/04 12:17:49;;;;;;;6.63;3.05;;;;;;;;;;5115655;28;20073;-82
2021/08/04 12:20:20;;;;;;;6.50;2.80;;;;;;;;;;5120684;28;20027;-82
2021/08/04 12:22:57;;;;;;;7.93;2.22;;;;;;;;;;5128413;28;20035;-83
2021/08/04 12:25:23;;;;;;;8.93;1.92;;;;;;;;;;5121693;28;20100;-82
2021/08/04 12:27:54;;;;;;;7.93;3.45;;;;;;;;;;5117164;28;20027;-82
2021/08/04 12:30:38;;;;;;;7.63;2.80;;;;;;;;;;5116321;28;20052;-81
2021/08/04 12:33:13;;;;;;;8.00;2.67;;;;;;;;;;5115823;28;20501;-84
2021/08/04 12:36:22;;;;;;;6.40;3.45;;;;;;;;;;5115468;28;20020;-84
2021/08/04 12:38:52;;;;;;;7.38;3.10;;;;;;;;;;5115411;28;20028;-84
2021/08/04 12:41:21;;;;;;;9.80;3.50;;;;;;;;;;5115136;28;20023;-82
2021/08/04 12:43:47;;;;;;;6.20;2.47;;;;;;;;;;5115219;28;20157;-84
2021/08/04 12:46:13;;;;;;;6.07;2.78;;;;;;;;;;5115087;28;20084;-83
2021/08/04 12:48:44;;;;;;;8.43;3.22;;;;;;;;;;5115004;28;20024;-84
2021/08/04 12:51:11;;;;;;;9.27;3.42;;;;;;;;;;5115120;28;20475;-84
2021/08/04 12:53:38;;;;;;;7.90;2.88;;;;;;;;;;5114634;28;20023;-84
2021/08/04 12:56:07;;;;;;;7.15;3.33;;;;;;;;;;5096211;28;20125;-83
2021/08/04 12:58:55;;;;;;;7.22;3.35;;;;;;;;;;5114719;28;20027;-84
2021/08/04 13:01:21;;;;;;;;;;;;;;;;;;5115175;28;20030;-84
2021/08/04 13:03:49;;;;;;;6.22;1.60;;;;;;;;;;5114863;28;19919;-84
2021/08/04 13:06:15;;;;;;;9.10;3.13;;;;;;;;;;5114752;28;20051;-84
2021/08/04 13:08:41;;;;;;;10.20;3.58;;;;;;;;;;5096438;28;20113;-84
2021/08/04 13:11:24;;;;;;;10.77;3.38;;;;;;;;;;5114558;28;20103;-84
2021/08/04 13:14:00;;;;;;;9.88;2.60;;;;;;;;;;5114672;28;20420;-85
2021/08/04 13:16:37;;;;;;;7.35;3.38;;;;;;;;;;5114584;28;20031;-84
2021/08/04 13:19:17;;;;;;;9.10;2.88;;;;;;;;;;5114647;28;20019;-84
2021/08/04 13:22:08;;;;;;;8.10;3.58;;;;;;;;;;5114508;28;20455;-84
2021/08/04 13:24:38;;;;;;;6.40;2.53;;;;;;;;;;5114331;28;20502;-85
2021/08/04 13:27:30;;;;;;;7.57;3.35;;;;;;;;;;5115195;28;20028;-84
2021/08/04 13:30:16;;;;;;;6.57;3.05;;;;;;;;;;5114893;28;20382;-84
2021/08/04 13:32:42;;;;;;;8.55;3.92;;;;;;;;;;5114584;28;20034;-85
2021/08/04 13:35:08;;;;;;;10.60;3.80;;;;;;;;;;5114310;28;20032;-83
2021/08/04 13:37:34;;;;;;;10.68;3.97;;;;;;;;;;5114385;28;20471;-84
2021/08/04 13:39:59;;;;;;;8.55;4.38;;;;;;;;;;5114156;28;20038;-84
2021/08/04 13:42:25;;;;;;;9.82;3.22;;;;;;;;;;5095928;28;20071;-84
2021/08/04 13:44:50;;;;;;;20.83;3.90;;;;;;;;;;5113963;28;20059;-84
2021/08/04 13:47:16;;;;;;;8.93;3.03;;;;;;;;;;5096027;28;20024;-85
2021/08/04 13:49:42;;;;;;;6.00;3.60;;;;;;;;;;5114163;28;20144;-85
2021/08/04 13:52:08;;;;;;;7.85;3.58;;;;;;;;;;5114270;28;20489;-84
2021/08/04 13:54:33;;;;;;;11.13;3.55;;;;;;;;;;5114217;28;20043;-85
2021/08/04 13:56:59;;;;;;;9.13;3.78;;;;;;;;;;5114411;28;20098;-83
2021/08/04 13:59:24;;;;;;;11.15;3.90;;;;;;;;;;5114271;28;20027;-83
2021/08/04 14:01:50;;;;;;;9.00;3.85;;;;;;;;;;5095751;28;20019;-83
2021/08/04 14:04:16;;;;;;;10.00;4.60;;;;;;;;;;5095784;28;20375;-83
2021/08/04 14:06:41;;;;;;;9.50;4.07;;;;;;;;;;5115437;28;20098;-84
2021/08/04 14:09:07;;;;;;;12.32;4.55;;;;;;;;;;5118392;28;20024;-84
2021/08/04 14:11:33;;;;;;;7.40;3.65;;;;;;;;;;5118352;28;20026;-83
2021/08/04 14:13:58;;;;;;;7.45;3.72;;;;;;;;;;5118519;28;20463;-84
2021/08/04 14:16:29;;;;;;;4.90;2.92;;;;;;;;;;5118707;28;20042;-83
2021/08/04 14:18:55;;;;;;;6.88;3.25;;;;;;;;;;5099713;28;20032;-83
2021/08/04 14:21:20;;;;;;;8.27;6.22;;;;;;;;;;5118339;28;20092;-84
2021/08/04 14:23:46;;;;;;;10.52;6.57;;;;;;;;;;5117851;28;20028;-84
2021/08/04 14:26:11;;;;;;;7.93;3.83;;;;;;;;;;5117755;28;20024;-83
2021/08/04 14:28:37;;;;;;;11.95;5.63;;;;;;;;;;5117846;28;20463;-83
2021/08/04 14:31:03;;;;;;;7.80;3.58;;;;;;;;;;5118252;28;20516;-83
2021/08/04 14:33:28;;;;;;;6.82;3.70;;;;;;;;;;5117815;28;20032;-83
2021/08/04 14:35:55;;;;;;;6.05;4.13;;;;;;;;;;5100589;28;20020;-84
2021/08/04 14:38:20;;;;;;;9.02;4.05;;;;;;;;;;5117887;28;20111;-83
2021/08/04 14:40:46;;;;;;;11.48;5.22;;;;;;;;;;5117378;28;20077;-83
2021/08/04 14:43:12;;;;;;;12.63;4.85;;;;;;;;;;5117451;28;20020;-84
2021/08/04 14:45:37;;;;;;;11.68;6.88;;;;;;;;;;5117297;28;20031;-84
2021/08/04 14:48:03;;;;;;;9.57;4.93;;;;;;;;;;5117322;28;20099;-83
2021/08/04 14:50:29;;;;;;;7.20;5.45;;;;;;;;;;5117780;28;20327;-83